createdAt,value
2023-12-10T00:00:51.073Z,4.35
2023-12-10T00:03:20.277Z,4.57
2023-12-10T00:05:54.721Z,4.50
2023-12-10T00:08:29.426Z,4.03
2023-12-10T00:10:57.535Z,4.50
2023-12-10T00:13:25.641Z,4.57
2023-12-10T00:15:53.769Z,4.30
2023-12-10T00:18:21.928Z,3.80
2023-12-10T00:20:50.070Z,3.63
2023-12-10T00:23:18.161Z,4.38
2023-12-10T00:25:47.550Z,4.45
2023-12-10T00:28:15.963Z,5.15
2023-12-10T00:30:44.107Z,4.40
2023-12-10T00:33:13.430Z,3.60
2023-12-10T00:35:41.632Z,4.05
2023-12-10T00:38:09.694Z,3.72
2023-12-10T00:40:37.847Z,3.83
2023-12-10T00:43:07.377Z,3.80
2023-12-10T00:45:35.555Z,4.25
2023-12-10T00:48:03.837Z,3.88
2023-12-10T00:50:31.984Z,3.22
2023-12-10T00:53:00.058Z,3.40
2023-12-10T00:55:28.180Z,3.97
2023-12-10T00:57:56.742Z,3.45
2023-12-10T01:00:26.213Z,4.57
2023-12-10T01:02:55.274Z,4.75
2023-12-10T01:05:23.384Z,4.50
2023-12-10T01:07:51.944Z,4.65
2023-12-10T01:10:20.646Z,4.97
2023-12-10T01:12:48.730Z,3.95
2023-12-10T01:15:17.415Z,4.85
2023-12-10T01:17:46.897Z,3.67
2023-12-10T01:20:17.256Z,4.05
2023-12-10T01:22:45.332Z,4.03
2023-12-10T01:25:14.748Z,4.10
2023-12-10T01:27:43.737Z,4.72
2023-12-10T01:30:12.354Z,4.57
2023-12-10T01:32:40.587Z,4.05
2023-12-10T01:35:11.487Z,4.78
2023-12-10T01:37:39.605Z,4.43
2023-12-10T01:40:09.945Z,4.40
2023-12-10T01:42:37.971Z,4.20
2023-12-10T01:45:06.849Z,4.60
2023-12-10T01:47:36.637Z,4.55
2023-12-10T01:50:05.399Z,5.47
2023-12-10T01:52:35.660Z,4.65
2023-12-10T01:55:04.919Z,3.90
2023-12-10T01:57:34.683Z,4.13
2023-12-10T02:00:06.822Z,3.92
2023-12-10T02:02:41.548Z,3.95
2023-12-10T02:05:10.587Z,3.55
2023-12-10T02:07:40.209Z,3.85
2023-12-10T02:10:08.620Z,3.30
2023-12-10T02:12:37.139Z,3.63
2023-12-10T02:15:14.928Z,3.85
2023-12-10T02:17:43.140Z,3.67
2023-12-10T02:20:13.146Z,3.70
2023-12-10T02:22:45.303Z,3.67
2023-12-10T02:25:14.263Z,3.38
2023-12-10T02:27:43.738Z,3.05
2023-12-10T02:30:12.441Z,3.42
2023-12-10T02:32:40.547Z,3.72
2023-12-10T02:35:09.122Z,3.50
2023-12-10T02:37:37.165Z,3.85
2023-12-10T02:40:06.556Z,2.85
2023-12-10T02:42:34.647Z,3.15
2023-12-10T02:45:04.476Z,2.88
2023-12-10T02:47:32.786Z,3.78
2023-12-10T02:50:00.786Z,3.30
2023-12-10T02:52:29.055Z,2.97
2023-12-10T02:54:57.238Z,3.10
2023-12-10T02:57:25.335Z,3.47
2023-12-10T02:59:53.413Z,3.03
2023-12-10T03:02:22.944Z,3.13
2023-12-10T03:04:50.992Z,3.00
2023-12-10T03:07:19.142Z,3.22
2023-12-10T03:09:47.310Z,3.10
2023-12-10T03:12:15.469Z,2.92
2023-12-10T03:14:43.550Z,3.22
2023-12-10T03:17:11.665Z,3.67
2023-12-10T03:19:41.544Z,3.05
2023-12-10T03:22:09.765Z,3.30
2023-12-10T03:24:37.859Z,4.50
2023-12-10T03:27:06.174Z,3.08
2023-12-10T03:29:34.343Z,3.05
2023-12-10T03:32:02.396Z,3.53
2023-12-10T03:34:30.618Z,3.55
2023-12-10T03:37:00.147Z,4.47
2023-12-10T03:39:28.207Z,3.25
2023-12-10T03:41:56.279Z,4.00
2023-12-10T03:44:24.860Z,3.47
2023-12-10T03:46:52.903Z,3.67
2023-12-10T03:49:21.043Z,3.63
2023-12-10T03:51:49.184Z,2.83
2023-12-10T03:54:18.657Z,3.10
2023-12-10T03:56:46.715Z,3.35
2023-12-10T03:59:14.726Z,3.17
2023-12-10T04:01:42.948Z,3.08
2023-12-10T04:04:11.091Z,4.38
2023-12-10T04:06:40.243Z,3.35
2023-12-10T04:09:09.254Z,3.22
2023-12-10T04:11:38.828Z,5.05
2023-12-10T04:14:09.256Z,3.67
2023-12-10T04:16:38.431Z,4.37
2023-12-10T04:19:07.035Z,4.32
2023-12-10T04:21:35.288Z,3.42
2023-12-10T04:24:03.914Z,3.92
2023-12-10T04:26:32.002Z,3.90
2023-12-10T04:29:01.412Z,4.22
2023-12-10T04:31:29.725Z,4.68
2023-12-10T04:33:58.173Z,3.42
2023-12-10T04:36:26.345Z,4.35
2023-12-10T04:38:54.460Z,3.17
2023-12-10T04:41:22.536Z,3.35
2023-12-10T04:43:50.604Z,4.95
2023-12-10T04:46:20.008Z,3.88
2023-12-10T04:48:48.227Z,3.58
2023-12-10T04:51:16.404Z,4.15
2023-12-10T04:53:44.421Z,3.97
2023-12-10T04:56:12.545Z,4.18
2023-12-10T04:58:40.618Z,3.85
2023-12-10T05:01:08.868Z,4.10
2023-12-10T05:03:38.538Z,3.85
2023-12-10T05:06:07.131Z,3.65
2023-12-10T05:08:35.516Z,3.28
2023-12-10T05:11:04.414Z,3.72
2023-12-10T05:13:32.428Z,2.92
2023-12-10T05:16:00.532Z,3.33
2023-12-10T05:18:28.714Z,3.92
2023-12-10T05:20:58.146Z,3.78
2023-12-10T05:23:26.173Z,4.45
2023-12-10T05:25:54.213Z,3.25
2023-12-10T05:28:22.252Z,4.65
2023-12-10T05:30:50.387Z,3.80
2023-12-10T05:33:18.680Z,3.50
2023-12-10T05:35:46.859Z,3.75
2023-12-10T05:38:16.748Z,4.22
2023-12-10T05:40:44.759Z,3.38
2023-12-10T05:43:12.800Z,3.35
2023-12-10T05:45:40.924Z,3.88
2023-12-10T05:48:09.128Z,3.60
2023-12-10T05:50:37.877Z,3.90
2023-12-10T05:53:05.934Z,4.15
2023-12-10T05:55:35.376Z,4.30
2023-12-10T05:58:03.428Z,4.45
2023-12-10T06:00:31.557Z,3.33
2023-12-10T06:02:59.628Z,3.92
2023-12-10T06:05:27.728Z,3.85
2023-12-10T06:07:55.957Z,3.58
2023-12-10T06:10:24.188Z,3.97
2023-12-10T06:12:53.714Z,3.40
2023-12-10T06:15:21.753Z,3.97
2023-12-10T06:17:49.919Z,3.63
2023-12-10T06:20:18.003Z,3.55
2023-12-10T06:22:46.158Z,3.47
2023-12-10T06:25:14.186Z,3.95
2023-12-10T06:27:42.302Z,3.78
2023-12-10T06:30:12.412Z,3.50
2023-12-10T06:32:40.531Z,3.83
2023-12-10T06:35:09.031Z,4.00
2023-12-10T06:37:38.605Z,3.35
2023-12-10T06:40:07.920Z,3.70
2023-12-10T06:42:36.477Z,4.00
2023-12-10T06:45:05.101Z,5.95
2023-12-10T06:47:34.536Z,3.30
2023-12-10T06:50:04.416Z,3.92
2023-12-10T06:52:32.496Z,3.47
2023-12-10T06:55:01.415Z,4.25
2023-12-10T06:57:29.796Z,3.40
2023-12-10T06:59:57.895Z,3.40
2023-12-10T07:02:26.207Z,4.28
2023-12-10T07:04:55.767Z,3.05
2023-12-10T07:07:23.830Z,3.30
2023-12-10T07:09:51.907Z,3.83
2023-12-10T07:12:19.945Z,3.30
2023-12-10T07:14:50.852Z,3.88
2023-12-10T07:17:19.667Z,3.85
2023-12-10T07:19:47.952Z,3.22
2023-12-10T07:22:17.531Z,3.03
2023-12-10T07:24:45.641Z,3.10
2023-12-10T07:27:13.700Z,3.78
2023-12-10T07:29:41.754Z,3.22
2023-12-10T07:32:09.865Z,3.20
2023-12-10T07:34:38.255Z,3.40
2023-12-10T07:37:06.476Z,3.25
2023-12-10T07:39:35.955Z,4.45
2023-12-10T07:42:04.168Z,3.63
2023-12-10T07:44:32.226Z,3.65
2023-12-10T07:47:00.268Z,4.32
2023-12-10T07:49:28.376Z,2.95
2023-12-10T07:51:56.730Z,4.18
2023-12-10T07:54:24.887Z,4.30
2023-12-10T07:56:54.330Z,3.35
2023-12-10T07:59:24.362Z,4.13
2023-12-10T08:04:21.635Z,3.78
2023-12-10T08:06:49.912Z,3.22
2023-12-10T08:09:18.829Z,3.35
2023-12-10T08:11:46.930Z,3.15
2023-12-10T08:14:16.409Z,3.65
2023-12-10T08:16:44.647Z,3.90
2023-12-10T08:19:12.815Z,3.28
2023-12-10T08:21:40.960Z,3.47
2023-12-10T08:24:09.344Z,2.67
2023-12-10T08:26:37.579Z,3.50
2023-12-10T08:29:05.666Z,4.35
2023-12-10T08:31:35.096Z,4.00
2023-12-10T08:34:03.326Z,3.33
2023-12-10T08:36:31.388Z,3.78
2023-12-10T08:38:59.561Z,3.05
2023-12-10T08:41:27.630Z,3.17
2023-12-10T08:43:55.703Z,2.65
2023-12-10T08:46:23.791Z,3.97
2023-12-10T08:48:53.333Z,2.92
2023-12-10T08:51:21.412Z,3.28
2023-12-10T08:53:49.489Z,2.97
2023-12-10T08:56:17.546Z,2.78
2023-12-10T08:58:45.654Z,2.75
2023-12-10T09:01:13.860Z,2.80
2023-12-10T09:03:44.154Z,2.78
2023-12-10T09:06:13.860Z,2.70
2023-12-10T09:08:41.846Z,2.63
2023-12-10T09:11:09.936Z,2.63
2023-12-10T09:13:38.154Z,2.53
2023-12-10T09:16:07.392Z,3.58
2023-12-10T09:18:35.587Z,3.30
2023-12-10T09:21:03.734Z,3.88
2023-12-10T09:23:33.103Z,3.08
2023-12-10T09:26:01.287Z,3.45
2023-12-10T09:28:30.326Z,3.55
2023-12-10T09:30:58.814Z,2.92
2023-12-10T09:33:27.012Z,2.97
2023-12-10T09:35:55.178Z,3.70
2023-12-10T09:38:23.219Z,2.40
2023-12-10T09:40:52.673Z,2.97
2023-12-10T09:43:20.755Z,3.22
2023-12-10T09:45:48.872Z,3.85
2023-12-10T09:48:17.718Z,3.08
2023-12-10T09:50:46.402Z,3.38
2023-12-10T09:53:14.524Z,3.10
2023-12-10T09:55:42.673Z,2.70
2023-12-10T09:58:12.245Z,3.03
2023-12-10T10:00:43.323Z,3.38
2023-12-10T10:05:39.575Z,3.25
2023-12-10T10:08:07.644Z,3.15
2023-12-10T10:10:35.763Z,3.08
2023-12-10T10:13:06.966Z,2.78
2023-12-10T10:18:07.312Z,2.75
2023-12-10T10:20:35.542Z,3.08
2023-12-10T10:23:03.804Z,3.13
2023-12-10T10:25:31.979Z,2.90
2023-12-10T10:28:00.548Z,3.00
2023-12-10T10:30:30.592Z,3.75
2023-12-10T10:32:59.058Z,3.13
2023-12-10T10:35:28.685Z,2.75
2023-12-10T10:37:57.364Z,2.42
2023-12-10T10:40:25.972Z,2.67
2023-12-10T10:42:54.334Z,2.70
2023-12-10T10:45:22.463Z,2.53
2023-12-10T10:47:51.374Z,2.30
2023-12-10T10:50:24.289Z,2.33
2023-12-10T10:52:55.834Z,2.40
2023-12-10T10:55:24.719Z,2.70
2023-12-10T10:57:52.956Z,2.65
2023-12-10T11:00:37.219Z,2.80
2023-12-10T11:03:05.992Z,2.60
2023-12-10T11:05:34.787Z,2.72
2023-12-10T11:08:05.882Z,2.92
2023-12-10T11:10:34.751Z,2.58
2023-12-10T11:13:02.945Z,2.22
2023-12-10T11:15:33.920Z,3.10
2023-12-10T11:18:02.894Z,3.45
2023-12-10T11:20:36.338Z,2.92
2023-12-10T11:23:06.389Z,3.08
2023-12-10T11:25:34.608Z,2.72
2023-12-10T11:28:03.502Z,2.70
2023-12-10T11:30:31.834Z,3.42
2023-12-10T11:33:00.038Z,3.03
2023-12-10T11:35:28.291Z,2.75
2023-12-10T11:37:56.340Z,3.60
2023-12-10T11:40:25.904Z,2.90
2023-12-10T11:42:54.021Z,3.10
2023-12-10T11:45:22.162Z,3.90
2023-12-10T11:47:52.887Z,3.35
2023-12-10T11:50:21.207Z,2.58
2023-12-10T11:52:49.409Z,2.80
2023-12-10T11:55:17.536Z,2.70
2023-12-10T11:57:47.063Z,2.40
2023-12-10T12:00:15.710Z,2.92
2023-12-10T12:02:44.866Z,3.17
2023-12-10T12:05:15.784Z,2.60
2023-12-10T12:07:45.621Z,3.80
2023-12-10T12:10:14.219Z,3.33
2023-12-10T12:12:44.262Z,3.22
2023-12-10T12:15:14.566Z,2.97
2023-12-10T12:17:43.156Z,3.00
2023-12-10T12:20:15.020Z,3.42
2023-12-10T12:22:44.466Z,3.00
2023-12-10T12:25:13.865Z,3.50
2023-12-10T12:27:41.907Z,3.80
2023-12-10T12:30:10.153Z,3.40
2023-12-10T12:32:39.821Z,3.08
2023-12-10T12:35:08.087Z,3.03
2023-12-10T12:37:36.262Z,2.78
2023-12-10T12:40:05.428Z,3.13
2023-12-10T12:42:33.709Z,2.72
2023-12-10T12:45:01.875Z,2.80
2023-12-10T12:47:30.428Z,3.20
2023-12-10T12:50:00.266Z,2.65
2023-12-10T12:52:28.495Z,2.92
2023-12-10T12:54:56.693Z,3.00
2023-12-10T12:57:24.826Z,2.63
2023-12-10T12:59:52.887Z,3.03
2023-12-10T13:02:20.906Z,4.60
2023-12-10T13:04:48.985Z,3.20
2023-12-10T13:07:18.616Z,2.92
2023-12-10T13:09:46.677Z,2.45
2023-12-10T13:12:14.769Z,2.70
2023-12-10T13:14:43.062Z,3.00
2023-12-10T13:17:11.333Z,2.42
2023-12-10T13:19:39.967Z,2.83
2023-12-10T13:22:08.268Z,2.53
2023-12-10T13:24:38.126Z,2.30
2023-12-10T13:27:06.210Z,3.70
2023-12-10T13:29:34.336Z,2.55
2023-12-10T13:32:02.377Z,2.40
2023-12-10T13:34:30.464Z,2.15
2023-12-10T13:36:58.604Z,2.38
2023-12-10T13:39:26.757Z,2.75
2023-12-10T13:41:56.157Z,2.90
2023-12-10T13:44:24.980Z,2.45
2023-12-10T13:46:53.022Z,2.53
2023-12-10T13:49:21.183Z,3.28
2023-12-10T13:51:49.291Z,2.13
2023-12-10T13:54:18.260Z,3.35
2023-12-10T13:56:48.694Z,2.63
2023-12-10T13:59:19.610Z,2.17
2023-12-10T14:01:47.840Z,3.47
2023-12-10T14:04:16.252Z,3.75
2023-12-10T14:06:44.355Z,3.05
2023-12-10T14:09:13.027Z,3.38
2023-12-10T14:11:44.305Z,2.85
2023-12-10T14:14:15.907Z,3.47
2023-12-10T14:16:47.264Z,3.35
2023-12-10T14:19:15.445Z,3.45
2023-12-10T14:21:43.599Z,3.72
2023-12-10T14:24:12.529Z,5.10
2023-12-10T14:26:40.678Z,4.43
2023-12-10T14:29:08.688Z,4.22
2023-12-10T14:31:36.711Z,3.75
2023-12-10T14:34:06.834Z,4.93
2023-12-10T14:36:35.286Z,3.55
2023-12-10T14:39:04.565Z,4.18
2023-12-10T14:41:32.824Z,3.58
2023-12-10T14:44:00.939Z,3.67
2023-12-10T14:46:29.749Z,4.93
2023-12-10T14:48:57.972Z,4.00
2023-12-10T14:51:27.479Z,4.05
2023-12-10T14:53:55.610Z,5.65
2023-12-10T14:56:23.725Z,4.60
2023-12-10T14:58:51.732Z,5.45
2023-12-10T15:01:20.362Z,5.70
2023-12-10T15:03:49.535Z,5.85
2023-12-10T15:06:17.593Z,5.55
2023-12-10T15:08:47.347Z,6.47
2023-12-10T15:11:15.419Z,6.25
2023-12-10T15:13:43.499Z,5.53
2023-12-10T15:16:11.910Z,7.15
2023-12-10T15:18:40.739Z,6.95
2023-12-10T15:21:08.886Z,6.55
2023-12-10T15:23:36.926Z,7.15
2023-12-10T15:26:06.517Z,6.88
2023-12-10T15:28:34.832Z,6.07
2023-12-10T15:31:04.337Z,5.40
2023-12-10T15:33:32.520Z,5.15
2023-12-10T15:36:00.612Z,5.72
2023-12-10T15:38:28.661Z,6.75
2023-12-10T15:40:56.935Z,5.72
2023-12-10T15:43:26.946Z,6.10
2023-12-10T15:45:55.077Z,6.10
2023-12-10T15:48:23.283Z,4.95
2023-12-10T15:50:51.387Z,4.97
2023-12-10T15:53:19.414Z,4.72
2023-12-10T15:55:47.438Z,5.10
2023-12-10T15:58:15.645Z,4.55
2023-12-10T16:00:45.221Z,4.60
2023-12-10T16:03:13.484Z,5.72
2023-12-10T16:05:41.737Z,5.53
2023-12-10T16:08:09.873Z,5.80
2023-12-10T16:10:40.642Z,4.82
2023-12-10T16:13:09.121Z,5.60
2023-12-10T16:15:37.279Z,4.65
2023-12-10T16:18:06.817Z,4.40
2023-12-10T16:20:34.963Z,4.45
2023-12-10T16:23:03.045Z,5.25
2023-12-10T16:25:31.270Z,5.85
2023-12-10T16:27:59.312Z,4.55
2023-12-10T16:30:27.491Z,3.83
2023-12-10T16:32:55.858Z,3.75
2023-12-10T16:35:25.406Z,3.83
2023-12-10T16:37:53.488Z,3.92
2023-12-10T16:40:21.534Z,3.97
2023-12-10T16:42:49.561Z,3.40
2023-12-10T16:45:17.654Z,3.78
2023-12-10T16:47:46.290Z,3.60
2023-12-10T16:50:14.731Z,3.60
2023-12-10T16:52:44.158Z,3.60
2023-12-10T16:55:13.669Z,4.85
2023-12-10T16:57:42.491Z,4.60
2023-12-10T17:00:12.790Z,3.00
2023-12-10T17:02:41.039Z,3.40
2023-12-10T17:05:10.499Z,2.97
2023-12-10T17:07:38.714Z,3.85
2023-12-10T17:10:08.682Z,3.28
2023-12-10T17:12:36.884Z,3.22
2023-12-10T17:15:05.595Z,3.30
2023-12-10T17:17:33.710Z,2.85
2023-12-10T17:20:02.035Z,3.20
2023-12-10T17:22:30.195Z,3.00
2023-12-10T17:24:58.490Z,3.60
2023-12-10T17:27:28.805Z,3.20
2023-12-10T17:29:57.095Z,3.30
2023-12-10T17:32:25.861Z,3.83
2023-12-10T17:34:53.973Z,2.90
2023-12-10T17:37:21.994Z,3.67
2023-12-10T17:39:50.133Z,3.40
2023-12-10T17:42:18.231Z,3.92
2023-12-10T17:44:54.206Z,3.10
2023-12-10T17:47:25.418Z,3.33
2023-12-10T17:49:53.777Z,3.95
2023-12-10T17:52:22.042Z,3.63
2023-12-10T17:54:50.234Z,4.05
2023-12-10T17:57:18.363Z,3.15
2023-12-10T17:59:47.812Z,3.60
2023-12-10T18:02:15.901Z,3.50
2023-12-10T18:04:43.956Z,3.20
2023-12-10T18:07:12.083Z,3.05
2023-12-10T18:09:40.381Z,3.90
2023-12-10T18:12:09.604Z,3.17
2023-12-10T18:14:37.665Z,3.50
2023-12-10T18:17:07.207Z,2.42
2023-12-10T18:19:35.406Z,3.95
2023-12-10T18:22:03.734Z,2.58
2023-12-10T18:24:31.890Z,3.70
2023-12-10T18:27:00.102Z,3.08
2023-12-10T18:29:28.914Z,3.28
2023-12-10T18:31:57.155Z,3.70
2023-12-10T18:34:26.804Z,3.13
2023-12-10T18:36:55.125Z,3.15
2023-12-10T18:39:23.179Z,3.10
2023-12-10T18:41:51.194Z,4.43
2023-12-10T18:44:19.239Z,2.97
2023-12-10T18:46:47.302Z,3.97
2023-12-10T18:49:15.651Z,3.40
2023-12-10T18:51:45.635Z,3.35
2023-12-10T18:54:13.718Z,3.20
2023-12-10T18:56:41.784Z,3.60
2023-12-10T18:59:09.978Z,2.90
2023-12-10T19:01:38.143Z,7.50
2023-12-10T19:04:06.928Z,3.60
2023-12-10T19:06:35.000Z,3.55
2023-12-10T19:09:04.862Z,3.08
2023-12-10T19:11:33.070Z,3.25
2023-12-10T19:14:01.391Z,5.00
2023-12-10T19:16:29.453Z,3.63
2023-12-10T19:18:59.922Z,3.70
2023-12-10T19:21:28.412Z,7.03
2023-12-10T19:23:56.488Z,3.25
2023-12-10T19:26:28.973Z,3.35
2023-12-10T19:28:57.010Z,2.90
2023-12-10T19:31:26.314Z,2.50
2023-12-10T19:33:54.576Z,3.15
2023-12-10T19:36:22.659Z,2.92
2023-12-10T19:38:50.911Z,3.28
2023-12-10T19:41:18.969Z,2.60
2023-12-10T19:43:48.450Z,3.65
2023-12-10T19:46:17.332Z,4.38
2023-12-10T19:48:45.413Z,3.88
2023-12-10T19:51:13.495Z,3.80
2023-12-10T19:53:41.592Z,3.58
2023-12-10T19:56:11.762Z,3.20
2023-12-10T19:58:39.951Z,4.30
2023-12-10T20:01:09.458Z,3.33
2023-12-10T20:03:37.703Z,3.67
2023-12-10T20:06:06.147Z,4.10
2023-12-10T20:08:34.190Z,3.70
2023-12-10T20:11:02.256Z,3.72
2023-12-10T20:13:30.733Z,4.20
2023-12-10T20:15:59.238Z,4.45
2023-12-10T20:18:29.369Z,4.45
2023-12-10T20:20:57.869Z,5.18
2023-12-10T20:23:25.957Z,4.75
2023-12-10T20:25:55.686Z,4.82
2023-12-10T20:28:24.011Z,4.90
2023-12-10T20:30:52.732Z,5.93
2023-12-10T20:33:20.854Z,5.03
2023-12-10T20:35:50.392Z,4.40
2023-12-10T20:38:18.462Z,5.30
2023-12-10T20:40:49.263Z,4.97
2023-12-10T20:43:18.688Z,4.35
2023-12-10T20:45:46.750Z,4.47
2023-12-10T20:48:15.018Z,5.10
2023-12-10T20:50:43.240Z,4.70
2023-12-10T20:53:12.644Z,4.63
2023-12-10T20:55:40.821Z,4.68
2023-12-10T20:58:11.232Z,4.90
2023-12-10T21:00:40.801Z,4.45
2023-12-10T21:03:09.277Z,4.47
2023-12-10T21:05:38.291Z,4.00
2023-12-10T21:08:06.429Z,3.03
2023-12-10T21:10:36.159Z,3.33
2023-12-10T21:13:04.300Z,3.72
2023-12-10T21:15:32.430Z,3.13
2023-12-10T21:18:00.934Z,3.83
2023-12-10T21:20:28.984Z,2.72
2023-12-10T21:22:57.100Z,3.08
2023-12-10T21:25:25.191Z,3.67
2023-12-10T21:27:55.004Z,3.75
2023-12-10T21:30:23.237Z,3.33
2023-12-10T21:32:51.246Z,3.33
2023-12-10T21:35:19.312Z,3.88
2023-12-10T21:37:47.395Z,3.45
2023-12-10T21:40:15.584Z,3.30
2023-12-10T21:42:43.704Z,3.20
2023-12-10T21:45:13.518Z,3.22
2023-12-10T21:47:41.604Z,3.47
2023-12-10T21:50:10.017Z,3.05
2023-12-10T21:52:38.119Z,3.40
2023-12-10T21:55:06.534Z,2.92
2023-12-10T21:57:34.811Z,3.13
2023-12-10T22:00:03.962Z,3.53
2023-12-10T22:02:41.960Z,3.70
2023-12-10T22:05:10.409Z,3.72
2023-12-10T22:07:38.926Z,4.30
2023-12-10T22:10:08.935Z,3.50
2023-12-10T22:12:37.150Z,3.83
2023-12-10T22:15:05.553Z,3.38
2023-12-10T22:17:34.042Z,3.53
2023-12-10T22:20:04.374Z,3.13
2023-12-10T22:22:33.337Z,3.22
2023-12-10T22:25:01.461Z,3.03
2023-12-10T22:27:29.875Z,3.30
2023-12-10T22:29:58.202Z,2.65
2023-12-10T22:32:26.246Z,2.97
2023-12-10T22:34:54.354Z,3.22
2023-12-10T22:37:25.422Z,3.70
2023-12-10T22:39:53.752Z,3.63
2023-12-10T22:42:21.818Z,3.08
2023-12-10T22:44:51.205Z,3.63
2023-12-10T22:47:19.228Z,3.85
2023-12-10T22:49:47.303Z,4.03
2023-12-10T22:52:15.635Z,3.50
2023-12-10T22:54:45.079Z,3.72
2023-12-10T22:57:13.159Z,3.53
2023-12-10T22:59:41.250Z,4.03
2023-12-10T23:02:12.601Z,3.85
2023-12-10T23:04:40.844Z,3.40
2023-12-10T23:07:09.102Z,3.63
2023-12-10T23:09:39.386Z,3.53
2023-12-10T23:12:10.234Z,3.47
2023-12-10T23:14:38.710Z,3.28
2023-12-10T23:17:06.829Z,3.63
2023-12-10T23:19:35.031Z,3.83
2023-12-10T23:22:03.186Z,4.03
2023-12-10T23:24:31.489Z,3.88
2023-12-10T23:26:59.595Z,4.20
2023-12-10T23:29:28.996Z,3.80
2023-12-10T23:31:57.131Z,4.68
2023-12-10T23:34:25.162Z,4.20
2023-12-10T23:36:53.222Z,4.28
2023-12-10T23:39:21.431Z,4.30
2023-12-10T23:41:49.472Z,4.75
2023-12-10T23:44:17.501Z,5.20
2023-12-10T23:46:47.399Z,4.75
2023-12-10T23:49:15.581Z,4.45
2023-12-10T23:51:44.112Z,5.45
2023-12-10T23:54:13.387Z,5.38
2023-12-10T23:56:41.488Z,4.82
2023-12-10T23:59:11.010Z,6.03
